Time;durP1;ratioP1;P1;durP2;ratioP2;P2;SDS_P1;SDS_P2;PMS_P1;PMS_P2;Temp;Humidity;BMP_temperature;BMP_pressure;BME280_temperature;BME280_humidity;BME280_pressure;Samples;Min_cycle;Max_cycle;Signal;HPM_P1;HPM_P2
2022/11/25 00:00:15;;;;;;;11.35;1.63;;;;;14.90;100714.00;;;;5011861;28;20193;-77
2022/11/25 00:02:45;;;;;;;5.63;1.58;;;;;14.90;100717.00;;;;5027203;28;20209;-79
2022/11/25 00:05:13;;;;;;;5.88;1.67;;;;;14.90;100722.00;;;;5011099;28;20255;-78
2022/11/25 00:07:41;;;;;;;5.53;1.92;;;;;14.90;100711.00;;;;5010909;28;20189;-78
2022/11/25 00:10:09;;;;;;;5.28;1.40;;;;;14.90;100710.00;;;;5014308;28;20215;-79
2022/11/25 00:12:36;;;;;;;5.35;1.38;;;;;14.90;100702.00;;;;5030937;28;20204;-78
2022/11/25 00:15:04;;;;;;;7.78;1.33;;;;;14.90;100703.00;;;;5029950;28;20209;-79
2022/11/25 00:17:31;;;;;;;3.13;1.50;;;;;14.90;100697.00;;;;5025474;28;20189;-79
2022/11/25 00:20:00;;;;;;;4.68;1.60;;;;;15.00;100698.00;;;;5028964;28;20207;-79
2022/11/25 00:22:27;;;;;;;9.90;2.20;;;;;14.90;100683.00;;;;5014714;28;20285;-80
2022/11/25 00:24:56;;;;;;;6.78;1.60;;;;;14.90;100696.00;;;;5025339;28;20267;-79
2022/11/25 00:27:23;;;;;;;6.53;2.05;;;;;14.90;100685.00;;;;5016694;28;20204;-80
2022/11/25 00:29:50;;;;;;;5.85;1.60;;;;;14.90;100689.00;;;;5030276;28;20658;-79
2022/11/25 00:32:18;;;;;;;6.93;1.35;;;;;15.00;100685.00;;;;5026652;28;20215;-80
2022/11/25 00:34:45;;;;;;;5.65;1.67;;;;;14.90;100685.00;;;;5025213;28;20228;-80
2022/11/25 00:37:13;;;;;;;7.15;2.70;;;;;15.00;100682.00;;;;5012582;28;20216;-80
2022/11/25 00:39:40;;;;;;;5.28;1.85;;;;;15.00;100685.00;;;;5018914;28;20196;-80
2022/11/25 00:44:55;;;;;;;6.00;1.60;;;;;15.00;100679.00;;;;5011967;28;20238;-80
2022/11/25 00:47:23;;;;;;;6.50;1.80;;;;;14.90;100682.00;;;;5010897;28;20205;-80
2022/11/25 00:49:52;;;;;;;6.63;1.42;;;;;14.90;100676.00;;;;5015469;28;20209;-79
2022/11/25 00:52:21;;;;;;;5.32;1.40;;;;;14.90;100676.00;;;;5017632;28;20958;-80
2022/11/25 00:54:49;;;;;;;3.50;1.27;;;;;14.90;100676.00;;;;5023977;28;20227;-80
2022/11/25 00:57:20;;;;;;;4.55;1.08;;;;;14.90;100668.00;;;;5010556;28;20209;-80
2022/11/25 00:59:47;;;;;;;8.32;2.03;;;;;14.90;100669.00;;;;5012454;28;20201;-80
2022/11/25 01:02:16;;;;;;;5.70;1.20;;;;;14.90;100665.00;;;;5015407;28;20193;-80
2022/11/25 01:04:43;;;;;;;6.22;1.23;;;;;14.90;100667.00;;;;5013406;28;20612;-80
2022/11/25 01:07:10;;;;;;;11.55;1.92;;;;;14.90;100665.00;;;;5014135;28;20193;-80
2022/11/25 01:09:38;;;;;;;6.22;1.77;;;;;14.90;100668.00;;;;5009544;28;20216;-79
2022/11/25 01:12:05;;;;;;;5.30;1.67;;;;;14.90;100661.00;;;;5013852;28;20201;-80
2022/11/25 01:14:34;;;;;;;5.03;1.30;;;;;14.90;100671.00;;;;5017566;28;20667;-79
2022/11/25 01:17:02;;;;;;;6.80;1.52;;;;;15.00;100669.00;;;;5016622;28;20231;-80
2022/11/25 01:19:30;;;;;;;3.38;1.40;;;;;15.00;100667.00;;;;5013420;28;20193;-80
2022/11/25 01:21:57;;;;;;;4.60;1.80;;;;;15.00;100672.00;;;;5009738;28;20586;-76
2022/11/25 01:24:25;;;;;;;6.57;1.50;;;;;15.00;100669.00;;;;5009936;28;20286;-79
2022/11/25 01:26:53;;;;;;;6.15;1.70;;;;;15.00;100670.00;;;;5010320;28;20603;-80
2022/11/25 01:29:21;;;;;;;5.63;1.83;;;;;15.00;100674.00;;;;5025199;28;20204;-80
2022/11/25 01:31:50;;;;;;;9.65;2.10;;;;;14.90;100678.00;;;;5011038;28;20234;-80
2022/11/25 01:34:19;;;;;;;3.72;1.13;;;;;15.00;100681.00;;;;5010163;28;20228;-80
2022/11/25 01:36:47;;;;;;;3.97;1.67;;;;;15.00;100687.00;;;;5018204;28;20211;-80
2022/11/25 01:39:17;;;;;;;6.55;1.60;;;;;15.00;100690.00;;;;5010256;28;20197;-79
2022/11/25 01:41:45;;;;;;;5.18;1.60;;;;;15.00;100692.00;;;;5015117;28;20351;-80
2022/11/25 01:44:14;;;;;;;7.05;1.42;;;;;15.00;100693.00;;;;5009380;28;20621;-80
2022/11/25 01:47:03;;;;;;;4.03;1.75;;;;;14.90;100697.00;;;;5014731;28;20224;-80
2022/11/25 01:49:36;;;;;;;4.07;1.40;;;;;15.00;100702.00;;;;5009584;28;20204;-80
2022/11/25 01:52:09;;;;;;;3.72;1.10;;;;;15.00;100694.00;;;;5012540;28;20295;-80
2022/11/25 01:54:44;;;;;;;5.07;1.38;;;;;15.00;100701.00;;;;5027743;28;20188;-80
2022/11/25 01:57:18;;;;;;;5.55;1.50;;;;;15.10;100715.00;;;;5025425;28;20195;-80
2022/11/25 01:59:50;;;;;;;4.82;1.60;;;;;15.10;100717.00;;;;5010663;28;20577;-80
2022/11/25 02:02:20;;;;;;;2.92;1.25;;;;;15.10;100716.00;;;;5020524;28;20201;-80
2022/11/25 02:04:48;;;;;;;3.85;1.33;;;;;15.10;100713.00;;;;5008587;28;20240;-80
2022/11/25 02:07:22;;;;;;;3.35;1.20;;;;;15.10;100713.00;;;;5019883;28;20208;-80
2022/11/25 02:09:50;;;;;;;5.22;1.02;;;;;15.10;100722.00;;;;5018661;28;20204;-80
2022/11/25 02:12:19;;;;;;;2.92;1.27;;;;;15.10;100728.00;;;;5015926;28;20193;-80
2022/11/25 02:14:48;;;;;;;3.95;0.85;;;;;15.10;100722.00;;;;5011400;28;20196;-80
2022/11/25 02:17:16;;;;;;;2.40;1.10;;;;;15.10;100728.00;;;;5018018;28;20200;-80
2022/11/25 02:20:00;;;;;;;5.63;1.77;;;;;15.10;100728.00;;;;5015060;28;20671;-80
2022/11/25 02:22:39;;;;;;;3.83;1.00;;;;;15.10;100734.00;;;;5012524;28;20192;-80
2022/11/25 02:25:17;;;;;;;4.45;1.30;;;;;15.10;100735.00;;;;5022545;28;20220;-79
2022/11/25 02:27:49;;;;;;;5.93;1.10;;;;;15.20;100725.00;;;;5011436;28;20279;-80
2022/11/25 02:30:17;;;;;;;3.50;1.13;;;;;15.20;100730.00;;;;5009314;28;20216;-80
2022/11/25 02:32:45;;;;;;;2.08;0.82;;;;;15.20;100729.00;;;;5008974;28;20228;-80
2022/11/25 02:35:34;;;;;;;5.60;1.40;;;;;15.10;100720.00;;;;5008539;28;20232;-80
2022/11/25 02:38:05;;;;;;;7.35;1.30;;;;;15.20;100730.00;;;;5014503;28;20197;-80
2022/11/25 02:40:37;;;;;;;5.13;1.45;;;;;15.20;100722.00;;;;5019606;28;20196;-80
2022/11/25 02:43:04;;;;;;;4.50;1.73;;;;;15.20;100704.00;;;;5014055;28;20577;-80
2022/11/25 02:45:44;;;;;;;3.83;1.10;;;;;15.20;100710.00;;;;5014903;28;20225;-80
2022/11/25 02:48:11;;;;;;;6.35;1.13;;;;;15.30;100717.00;;;;5012388;28;20199;-80
2022/11/25 02:50:39;;;;;;;3.78;1.10;;;;;15.30;100716.00;;;;5009237;28;20201;-80
2022/11/25 02:53:07;;;;;;;6.45;1.42;;;;;15.30;100716.00;;;;5015406;28;20203;-81
2022/11/25 02:55:35;;;;;;;4.90;1.15;;;;;15.30;100719.00;;;;5027388;28;20310;-80
2022/11/25 02:58:03;;;;;;;4.97;1.27;;;;;15.30;100712.00;;;;5025197;28;20583;-80
2022/11/25 03:00:30;;;;;;;6.00;1.23;;;;;15.30;100720.00;;;;5026244;28;20208;-80
2022/11/25 03:02:58;;;;;;;6.30;1.52;;;;;15.30;100736.00;;;;5028959;28;20196;-80
2022/11/25 03:05:25;;;;;;;3.78;1.52;;;;;15.30;100738.00;;;;5021756;28;20212;-80
2022/11/25 03:07:52;;;;;;;3.72;1.10;;;;;15.30;100738.00;;;;5010088;28;20224;-80
2022/11/25 03:10:20;;;;;;;6.30;1.50;;;;;15.40;100729.00;;;;5008351;28;20937;-80
2022/11/25 03:12:49;;;;;;;3.75;1.42;;;;;15.40;100722.00;;;;5023217;28;20200;-79
2022/11/25 03:15:17;;;;;;;4.82;1.15;;;;;15.40;100711.00;;;;5019950;28;20204;-79
2022/11/25 03:17:45;;;;;;;5.60;1.67;;;;;15.40;100696.00;;;;5022356;28;20212;-80
2022/11/25 03:20:14;;;;;;;7.28;1.33;;;;;15.40;100707.00;;;;5014142;28;20205;-80
2022/11/25 03:22:41;;;;;;;3.95;1.05;;;;;15.40;100700.00;;;;5011108;28;20238;-80
2022/11/25 03:25:10;;;;;;;7.28;1.95;;;;;15.40;100709.00;;;;5008306;28;20283;-80
2022/11/25 03:27:39;;;;;;;4.55;1.27;;;;;15.40;100708.00;;;;5013208;28;20240;-80
2022/11/25 03:30:12;;;;;;;4.43;1.05;;;;;15.40;100727.00;;;;5013193;28;20204;-80
2022/11/25 03:32:39;;;;;;;2.53;0.90;;;;;15.40;100732.00;;;;5024386;28;21110;-80
2022/11/25 03:35:08;;;;;;;4.25;1.15;;;;;15.40;100740.00;;;;5007316;28;20233;-80
2022/11/25 03:37:35;;;;;;;3.60;0.90;;;;;15.40;100750.00;;;;5014183;28;20204;-80
2022/11/25 03:40:03;;;;;;;3.40;1.02;;;;;15.50;100743.00;;;;5012520;28;20200;-80
2022/11/25 03:42:30;;;;;;;3.88;1.48;;;;;15.50;100751.00;;;;5007160;28;20291;-80
2022/11/25 03:44:58;;;;;;;4.38;1.00;;;;;15.50;100761.00;;;;5006925;28;20248;-79
2022/11/25 03:47:26;;;;;;;4.32;1.23;;;;;15.50;100755.00;;;;5007707;28;20197;-80
2022/11/25 03:49:54;;;;;;;4.05;1.00;;;;;15.50;100749.00;;;;5019035;28;20211;-80
2022/11/25 03:52:21;;;;;;;2.83;1.33;;;;;15.50;100753.00;;;;5022797;28;20208;-79
2022/11/25 03:54:48;;;;;;;2.80;1.30;;;;;15.50;100755.00;;;;5013696;28;20209;-79
2022/11/25 03:57:15;;;;;;;3.28;1.10;;;;;15.50;100758.00;;;;5007450;28;20197;-80
2022/11/25 03:59:43;;;;;;;2.85;1.25;;;;;15.50;100763.00;;;;5012679;28;20573;-80
2022/11/25 04:02:10;;;;;;;2.30;0.95;;;;;15.50;100762.00;;;;5011432;28;20212;-80
2022/11/25 04:04:39;;;;;;;2.72;1.13;;;;;15.40;100766.00;;;;5014230;28;20228;-80
2022/11/25 04:07:06;;;;;;;2.78;1.02;;;;;15.40;100772.00;;;;5016281;28;20216;-80
2022/11/25 04:09:34;;;;;;;2.53;0.77;;;;;15.40;100775.00;;;;5020672;28;20288;-80
2022/11/25 04:14:45;;;;;;;1.98;0.82;;;;;15.40;100779.00;;;;5022664;28;20263;-79
2022/11/25 04:17:13;;;;;;;3.55;0.70;;;;;15.40;100784.00;;;;5013237;28;20204;-79
2022/11/25 04:19:41;;;;;;;2.15;0.70;;;;;15.40;100781.00;;;;5023237;28;20203;-80
2022/11/25 04:22:09;;;;;;;3.03;1.05;;;;;15.40;100784.00;;;;5015494;28;20192;-80
2022/11/25 04:24:36;;;;;;;2.28;0.90;;;;;15.40;100793.00;;;;5015932;28;20220;-80
2022/11/25 04:27:03;;;;;;;3.65;1.10;;;;;15.40;100789.00;;;;5022419;28;20240;-80
2022/11/25 04:29:32;;;;;;;2.80;0.65;;;;;15.40;100790.00;;;;5021949;28;20189;-79
2022/11/25 04:31:59;;;;;;;2.67;0.57;;;;;15.40;100793.00;;;;5025902;28;20196;-79
2022/11/25 04:34:26;;;;;;;1.88;0.63;;;;;15.40;100793.00;;;;5029547;28;20224;-80
2022/11/25 04:36:55;;;;;;;3.55;0.93;;;;;15.40;100799.00;;;;5018934;28;20209;-79
2022/11/25 04:39:22;;;;;;;2.35;0.70;;;;;15.40;100802.00;;;;5016748;28;20197;-79
2022/11/25 04:42:30;;;;;;;1.85;0.60;;;;;15.40;100801.00;;;;5016382;28;20547;-80
2022/11/25 04:44:37;;;;;;;1.10;0.50;;;;;15.30;100805.00;;;;5017641;28;20245;-80
2022/11/25 04:47:04;;;;;;;5.07;0.73;;;;;15.30;100807.00;;;;5012692;28;20205;-79
2022/11/25 04:49:31;;;;;;;3.10;0.47;;;;;15.30;100811.00;;;;5015556;28;20188;-80
2022/11/25 04:52:00;;;;;;;1.30;0.40;;;;;15.20;100812.00;;;;5017097;28;20208;-80
2022/11/25 04:54:27;;;;;;;3.60;0.40;;;;;15.20;100816.00;;;;5030144;28;20215;-79
2022/11/25 04:56:54;;;;;;;3.75;0.88;;;;;15.10;100814.00;;;;5015913;28;20223;-79
2022/11/25 05:02:03;;;;;;;1.27;0.55;;;;;15.00;100832.00;;;;5021362;28;20250;-80
2022/11/25 05:04:30;;;;;;;1.90;0.43;;;;;15.00;100847.00;;;;5010293;28;20217;-80
2022/11/25 05:06:59;;;;;;;0.60;0.43;;;;;15.00;100850.00;;;;5024335;28;20199;-80
2022/11/25 05:09:26;;;;;;;1.33;0.28;;;;;14.90;100853.00;;;;5020359;28;20204;-80
2022/11/25 05:11:54;;;;;;;0.98;0.50;;;;;14.90;100851.00;;;;5010661;28;20567;-80
2022/11/25 05:14:22;;;;;;;1.33;0.25;;;;;14.80;100847.00;;;;5010240;28;20682;-80
2022/11/25 05:16:50;;;;;;;2.15;0.45;;;;;14.80;100849.00;;;;5012778;28;20236;-79
2022/11/25 05:19:17;;;;;;;1.77;0.43;;;;;14.70;100843.00;;;;5010653;28;20204;-80
2022/11/25 05:21:44;;;;;;;1.75;0.40;;;;;14.70;100849.00;;;;5019689;28;20981;-80
2022/11/25 05:24:13;;;;;;;1.42;0.50;;;;;14.60;100851.00;;;;5028603;28;20200;-79
2022/11/25 05:26:40;;;;;;;1.85;0.50;;;;;14.60;100847.00;;;;5022995;28;20197;-79
2022/11/25 05:29:08;;;;;;;0.98;0.30;;;;;14.60;100832.00;;;;5022039;28;20193;-80
2022/11/25 05:31:36;;;;;;;0.77;0.40;;;;;14.60;100857.00;;;;5021009;28;20196;-80
2022/11/25 05:34:04;;;;;;;2.17;0.70;;;;;14.50;100856.00;;;;5025337;28;20259;-80
2022/11/25 05:36:31;;;;;;;1.42;0.30;;;;;14.50;100855.00;;;;5014332;28;20197;-79
2022/11/25 05:38:59;;;;;;;3.10;0.38;;;;;14.40;100859.00;;;;5021505;28;20246;-79
2022/11/25 05:41:28;;;;;;;0.93;0.25;;;;;14.40;100868.00;;;;5013605;28;20193;-79
2022/11/25 05:43:56;;;;;;;1.35;0.52;;;;;14.40;100862.00;;;;5023747;28;20204;-79
2022/11/25 05:46:23;;;;;;;1.40;0.50;;;;;14.30;100870.00;;;;5024382;28;20605;-79
2022/11/25 05:48:54;;;;;;;1.48;0.50;;;;;14.30;100875.00;;;;5010391;28;20215;-79
2022/11/25 05:51:22;;;;;;;0.55;0.20;;;;;14.30;100870.00;;;;5012827;28;20205;-80
2022/11/25 05:53:51;;;;;;;1.90;0.40;;;;;14.20;100877.00;;;;5016102;28;20200;-79
2022/11/25 05:56:18;;;;;;;1.40;0.57;;;;;14.20;100878.00;;;;5015306;28;20603;-79
2022/11/25 05:58:47;;;;;;;2.15;0.45;;;;;14.20;100883.00;;;;5028566;28;20207;-79
2022/11/25 06:01:16;;;;;;;1.00;0.45;;;;;14.10;100871.00;;;;5012690;28;20197;-80
2022/11/25 06:03:43;;;;;;;1.20;0.30;;;;;14.10;100882.00;;;;5009743;28;20189;-79
2022/11/25 06:06:11;;;;;;;3.13;0.45;;;;;14.10;100878.00;;;;5016963;28;20243;-79
2022/11/25 06:08:39;;;;;;;2.20;0.45;;;;;14.10;100878.00;;;;5012648;28;20204;-80
2022/11/25 06:11:07;;;;;;;2.15;0.88;;;;;14.10;100879.00;;;;5029570;28;20201;-79
2022/11/25 06:13:35;;;;;;;3.42;0.75;;;;;14.10;100886.00;;;;5018868;28;20212;-79
2022/11/25 06:16:09;;;;;;;2.38;0.88;;;;;14.00;100887.00;;;;5019525;28;20208;-79
2022/11/25 06:18:37;;;;;;;3.30;0.80;;;;;14.00;100896.00;;;;5012720;28;20197;-79
2022/11/25 06:21:06;;;;;;;1.48;0.70;;;;;14.00;100897.00;;;;5027122;28;20200;-79
2022/11/25 06:23:34;;;;;;;2.08;0.50;;;;;14.00;100897.00;;;;5022547;28;20289;-79
2022/11/25 06:26:05;;;;;;;3.35;0.88;;;;;13.90;100906.00;;;;5027093;28;20227;-79
2022/11/25 06:28:33;;;;;;;1.77;0.73;;;;;14.00;100902.00;;;;5008348;28;20682;-79
2022/11/25 06:31:07;;;;;;;5.18;0.95;;;;;13.90;100906.00;;;;5008888;28;20197;-79
2022/11/25 06:33:34;;;;;;;3.28;0.70;;;;;13.90;100907.00;;;;5018852;28;20209;-79
2022/11/25 06:36:03;;;;;;;1.27;0.68;;;;;13.90;100909.00;;;;5012989;28;20602;-79
2022/11/25 06:38:31;;;;;;;1.80;0.90;;;;;13.90;100920.00;;;;5017948;28;20223;-79
2022/11/25 06:41:00;;;;;;;1.08;0.88;;;;;13.90;100924.00;;;;5015142;28;20200;-79
2022/11/25 06:43:28;;;;;;;4.30;1.17;;;;;13.90;100932.00;;;;5017939;28;20240;-81
2022/11/25 06:45:55;;;;;;;1.58;0.73;;;;;13.80;100933.00;;;;5013288;28;20228;-79
2022/11/25 06:48:24;;;;;;;3.90;1.35;;;;;13.80;100934.00;;;;5013586;28;20201;-79
2022/11/25 06:50:59;;;;;;;3.72;1.33;;;;;13.80;100942.00;;;;5018842;28;20203;-79
2022/11/25 06:53:27;;;;;;;2.55;1.15;;;;;13.80;100937.00;;;;5020470;28;20199;-79
2022/11/25 06:56:09;;;;;;;1.80;0.77;;;;;13.70;100944.00;;;;5022341;28;20226;-79
2022/11/25 06:58:37;;;;;;;2.35;1.13;;;;;13.70;100952.00;;;;5013659;28;20192;-79
2022/11/25 07:01:07;;;;;;;1.63;0.90;;;;;13.70;100955.00;;;;5013919;28;20200;-81
2022/11/25 07:03:36;;;;;;;2.55;0.90;;;;;13.70;100960.00;;;;5011755;28;20577;-79
2022/11/25 07:06:04;;;;;;;2.28;0.80;;;;;13.70;100958.00;;;;5026541;28;20216;-79
2022/11/25 07:08:32;;;;;;;1.85;0.93;;;;;13.70;100953.00;;;;5024400;28;20203;-79
2022/11/25 07:11:04;;;;;;;2.63;1.05;;;;;13.60;100956.00;;;;5027421;28;20501;-79
2022/11/25 07:13:31;;;;;;;3.40;1.17;;;;;13.70;100956.00;;;;5027582;28;20717;-79
2022/11/25 07:16:02;;;;;;;1.73;0.85;;;;;13.60;100967.00;;;;5027412;28;20701;-79
2022/11/25 07:18:31;;;;;;;4.78;1.13;;;;;13.60;100962.00;;;;5026715;28;20200;-79
2022/11/25 07:21:05;;;;;;;1.92;0.90;;;;;13.60;100969.00;;;;5015121;28;20201;-79
2022/11/25 07:23:33;;;;;;;2.35;0.85;;;;;13.60;100972.00;;;;5017168;28;20199;-79
2022/11/25 07:26:05;;;;;;;1.92;0.93;;;;;13.60;100981.00;;;;5021154;28;20219;-79
2022/11/25 07:28:32;;;;;;;3.08;1.00;;;;;13.60;100975.00;;;;5008538;28;20196;-79
2022/11/25 07:31:06;;;;;;;1.60;0.82;;;;;13.50;100988.00;;;;5010650;28;20212;-79
2022/11/25 07:33:33;;;;;;;2.72;0.90;;;;;13.60;100994.00;;;;5009328;28;20208;-79
2022/11/25 07:36:04;;;;;;;1.17;0.68;;;;;13.50;100994.00;;;;5019559;28;20227;-79
2022/11/25 07:38:32;;;;;;;1.67;0.80;;;;;13.50;100990.00;;;;5022368;28;20242;-79
2022/11/25 07:41:05;;;;;;;2.97;0.85;;;;;13.50;100993.00;;;;5021837;28;20658;-79
2022/11/25 07:43:32;;;;;;;1.55;0.95;;;;;13.50;100995.00;;;;5026441;28;20204;-79
2022/11/25 07:46:09;;;;;;;2.55;0.80;;;;;13.40;101003.00;;;;5030187;28;20231;-79
2022/11/25 07:48:37;;;;;;;2.42;0.95;;;;;13.50;101009.00;;;;5012307;28;20215;-79
2022/11/25 07:51:13;;;;;;;3.30;1.38;;;;;13.50;101009.00;;;;5026755;28;20207;-79
2022/11/25 07:53:40;;;;;;;2.75;1.35;;;;;13.50;101017.00;;;;5015284;28;20205;-79
2022/11/25 07:56:07;;;;;;;1.70;0.85;;;;;13.50;101023.00;;;;5029794;28;20693;-79
2022/11/25 07:58:35;;;;;;;2.67;0.95;;;;;13.50;101029.00;;;;5027380;28;20196;-79
2022/11/25 08:01:02;;;;;;;1.38;0.80;;;;;13.50;101037.00;;;;5011584;28;20570;-79
2022/11/25 08:03:31;;;;;;;2.80;1.48;;;;;13.50;101036.00;;;;5011739;28;20220;-79
2022/11/25 08:06:01;;;;;;;4.15;1.38;;;;;13.50;101036.00;;;;5023456;28;20231;-79
2022/11/25 08:08:30;;;;;;;3.45;0.98;;;;;13.50;101036.00;;;;5023301;28;20259;-79
2022/11/25 08:10:57;;;;;;;1.67;1.10;;;;;13.50;101034.00;;;;5011076;28;20203;-79
2022/11/25 08:13:24;;;;;;;4.57;1.02;;;;;13.50;101046.00;;;;5011634;28;20625;-79
2022/11/25 08:15:52;;;;;;;2.58;1.17;;;;;13.50;101055.00;;;;5015416;28;20213;-79
2022/11/25 08:18:19;;;;;;;3.60;1.13;;;;;13.50;101054.00;;;;5031048;28;20207;-79
2022/11/25 08:20:46;;;;;;;5.57;1.17;;;;;13.50;101055.00;;;;5028730;28;20210;-79
2022/11/25 08:23:14;;;;;;;3.28;1.30;;;;;13.50;101060.00;;;;5017219;28;20547;-79
2022/11/25 08:25:43;;;;;;;1.63;0.68;;;;;13.50;101057.00;;;;5013759;28;20693;-79
2022/11/25 08:28:10;;;;;;;2.55;1.40;;;;;13.60;101071.00;;;;5010395;28;20205;-79
2022/11/25 08:30:38;;;;;;;2.80;0.80;;;;;13.60;101064.00;;;;5012707;28;20205;-79
2022/11/25 08:33:06;;;;;;;4.13;1.58;;;;;13.60;101073.00;;;;5017343;28;20292;-79
2022/11/25 08:35:36;;;;;;;2.60;1.10;;;;;13.60;101082.00;;;;5019503;28;20231;-79
2022/11/25 08:38:05;;;;;;;5.28;1.10;;;;;13.60;101086.00;;;;5013449;28;20205;-79
2022/11/25 08:40:32;;;;;;;4.75;1.30;;;;;13.60;101083.00;;;;5022892;28;20247;-79
2022/11/25 08:43:02;;;;;;;2.15;1.15;;;;;13.60;101089.00;;;;5021797;28;20209;-79
2022/11/25 08:45:29;;;;;;;2.78;1.25;;;;;13.70;101090.00;;;;5018358;28;20231;-79
2022/11/25 08:47:57;;;;;;;2.47;1.23;;;;;13.70;101089.00;;;;5015010;28;20204;-79
2022/11/25 08:50:24;;;;;;;3.80;1.25;;;;;13.70;101099.00;;;;5010414;28;20205;-79
2022/11/25 08:52:52;;;;;;;1.83;1.00;;;;;13.70;101101.00;;;;5011198;28;20205;-78
2022/11/25 08:55:20;;;;;;;1.85;1.00;;;;;13.70;101111.00;;;;5021398;28;20215;-78
2022/11/25 08:57:47;;;;;;;4.55;1.13;;;;;13.80;101114.00;;;;5029992;28;20196;-79
2022/11/25 09:00:17;;;;;;;2.95;1.00;;;;;13.80;101104.00;;;;5014096;28;20205;-79
2022/11/25 09:02:44;;;;;;;2.78;0.98;;;;;13.80;101114.00;;;;5010964;28;20208;-78
2022/11/25 09:05:13;;;;;;;2.15;0.70;;;;;13.90;101117.00;;;;5009263;28;20209;-79
2022/11/25 09:07:41;;;;;;;2.88;1.40;;;;;13.90;101114.00;;;;5021037;28;20208;-78
2022/11/25 09:10:12;;;;;;;2.38;1.42;;;;;13.90;101128.00;;;;5022541;28;20216;-79
2022/11/25 09:12:40;;;;;;;1.55;1.05;;;;;13.90;101127.00;;;;5009889;28;20201;-78
2022/11/25 09:15:08;;;;;;;2.95;1.30;;;;;14.00;101127.00;;;;5015016;28;20207;-78
2022/11/25 09:17:37;;;;;;;1.70;1.17;;;;;14.00;101133.00;;;;5029902;28;20196;-78
2022/11/25 09:20:05;;;;;;;2.78;1.23;;;;;14.10;101142.00;;;;5029119;28;20203;-78
2022/11/25 09:22:33;;;;;;;4.10;1.50;;;;;14.10;101152.00;;;;5021308;28;21120;-78
2022/11/25 09:25:00;;;;;;;3.45;1.30;;;;;14.20;101150.00;;;;5022602;28;20200;-78
2022/11/25 09:27:27;;;;;;;2.88;1.48;;;;;14.30;101155.00;;;;5026518;28;20228;-78
2022/11/25 09:29:54;;;;;;;5.00;1.85;;;;;14.30;101155.00;;;;5020553;28;20227;-78
2022/11/25 09:32:22;;;;;;;5.65;1.67;;;;;14.40;101158.00;;;;5010429;28;20204;-78
2022/11/25 09:34:50;;;;;;;3.90;1.70;;;;;14.40;101161.00;;;;5026015;28;20224;-78
2022/11/25 09:37:17;;;;;;;4.55;1.55;;;;;14.50;101169.00;;;;5020649;28;20219;-79
2022/11/25 09:39:45;;;;;;;2.22;1.00;;;;;14.50;101174.00;;;;5021790;28;20205;-78
2022/11/25 09:48:20;;;;;;;4.13;1.40;;;;;14.60;101187.00;;;;5014207;28;20270;-76
2022/11/25 09:51:00;;;;;;;2.25;1.40;;;;;14.60;101181.00;;;;5016256;28;20204;-76
2022/11/25 09:53:40;;;;;;;4.47;1.40;;;;;14.70;101190.00;;;;5011779;28;20204;-76
2022/11/25 09:56:18;;;;;;;3.35;1.63;;;;;14.70;101197.00;;;;5009456;28;20220;-77
2022/11/25 09:58:52;;;;;;;2.78;1.35;;;;;14.80;101196.00;;;;5017450;28;20211;-76
2022/11/25 10:01:24;;;;;;;5.07;1.20;;;;;14.80;101201.00;;;;5014996;28;20542;-76
2022/11/25 10:03:56;;;;;;;3.63;1.48;;;;;14.90;101202.00;;;;5027262;28;21226;-78
2022/11/25 10:06:27;;;;;;;2.20;1.20;;;;;14.90;101200.00;;;;5022611;28;20221;-77
2022/11/25 10:08:58;;;;;;;5.43;1.83;;;;;15.00;101199.00;;;;5010248;28;20197;-77
2022/11/25 10:11:42;;;;;;;4.25;1.50;;;;;15.00;101208.00;;;;5028307;28;20200;-77
2022/11/25 10:14:18;;;;;;;3.33;1.77;;;;;15.00;101200.00;;;;5027572;28;20208;-76
2022/11/25 10:16:50;;;;;;;2.85;1.48;;;;;15.10;101213.00;;;;5024738;28;20208;-76
2022/11/25 10:19:32;;;;;;;4.88;2.30;;;;;15.10;101209.00;;;;5008537;28;20197;-76
2022/11/25 10:22:10;;;;;;;4.90;1.63;;;;;15.20;101209.00;;;;5008399;28;20197;-76
2022/11/25 10:24:37;;;;;;;3.35;1.70;;;;;15.20;101218.00;;;;5008343;28;20227;-76
2022/11/25 10:27:07;;;;;;;4.22;1.65;;;;;15.20;101228.00;;;;5008399;28;20602;-76
2022/11/25 10:29:38;;;;;;;4.07;1.90;;;;;15.20;101224.00;;;;5008011;28;20193;-76
2022/11/25 10:32:22;;;;;;;4.78;2.20;;;;;15.20;101224.00;;;;5021195;28;20211;-76
2022/11/25 10:34:52;;;;;;;3.25;2.13;;;;;15.30;101237.00;;;;5014220;28;20220;-76
2022/11/25 10:37:29;;;;;;;4.55;2.15;;;;;15.40;101237.00;;;;5028137;28;20203;-76
2022/11/25 10:39:56;;;;;;;5.47;2.25;;;;;15.50;101247.00;;;;5013067;28;20197;-76
2022/11/25 10:42:25;;;;;;;5.95;2.50;;;;;15.50;101249.00;;;;5008371;28;20192;-76
2022/11/25 10:44:53;;;;;;;3.60;2.20;;;;;15.50;101235.00;;;;5011772;28;20201;-76
2022/11/25 10:47:34;;;;;;;5.47;2.15;;;;;15.50;101241.00;;;;5023695;28;20228;-77
2022/11/25 10:50:15;;;;;;;4.47;2.45;;;;;15.50;101244.00;;;;5020466;28;20701;-76
2022/11/25 10:52:50;;;;;;;5.78;2.30;;;;;15.60;101247.00;;;;5020456;28;20196;-76
2022/11/25 10:55:19;;;;;;;5.50;2.17;;;;;15.70;101248.00;;;;5009231;28;20209;-75
2022/11/25 10:57:46;;;;;;;5.25;2.30;;;;;15.80;101244.00;;;;5014577;28;20201;-76
2022/11/25 11:00:32;;;;;;;3.75;1.95;;;;;15.70;101267.00;;;;5018415;28;20663;-76
2022/11/25 11:03:12;;;;;;;4.00;2.10;;;;;15.90;101270.00;;;;5014204;28;20192;-76
2022/11/25 11:05:45;;;;;;;9.25;2.08;;;;;15.90;101269.00;;;;5010995;28;20204;-76
2022/11/25 11:08:23;;;;;;;6.57;1.80;;;;;15.90;101275.00;;;;5027493;28;20204;-76
2022/11/25 11:11:16;;;;;;;6.22;2.22;;;;;15.90;101276.00;;;;5028450;28;20196;-76
2022/11/25 11:13:44;;;;;;;5.28;1.65;;;;;16.10;101292.00;;;;5027922;28;20188;-76
2022/11/25 11:16:30;;;;;;;4.55;2.13;;;;;16.10;101284.00;;;;5018344;28;20201;-77
2022/11/25 11:18:58;;;;;;;2.58;1.52;;;;;16.20;101294.00;;;;5015910;28;20222;-77
2022/11/25 11:21:31;;;;;;;6.95;2.55;;;;;16.10;101303.00;;;;5024318;28;20197;-77
2022/11/25 11:24:00;;;;;;;3.55;1.42;;;;;16.20;101310.00;;;;5017782;28;20201;-76
2022/11/25 11:26:30;;;;;;;9.30;1.92;;;;;16.30;101306.00;;;;5016442;28;20236;-76
2022/11/25 11:29:03;;;;;;;7.40;2.05;;;;;16.30;101308.00;;;;5012161;28;20687;-76
2022/11/25 11:31:37;;;;;;;4.32;1.58;;;;;16.40;101309.00;;;;5029021;28;20216;-76
2022/11/25 11:34:30;;;;;;;4.78;1.70;;;;;16.40;101306.00;;;;5031426;28;20231;-76
2022/11/25 11:37:15;;;;;;;6.30;1.67;;;;;16.40;101319.00;;;;5031724;28;20204;-76
2022/11/25 11:40:10;;;;;;;4.30;2.20;;;;;16.50;101323.00;;;;5020833;28;20704;-76
2022/11/25 11:42:46;;;;;;;5.05;1.45;;;;;16.60;101330.00;;;;5017575;28;20212;-76
2022/11/25 11:45:29;;;;;;;3.55;1.77;;;;;16.60;101326.00;;;;5016484;28;20193;-76
2022/11/25 11:48:10;;;;;;;5.20;1.73;;;;;16.70;101332.00;;;;5019027;28;20721;-77
2022/11/25 11:50:40;;;;;;;5.13;1.60;;;;;16.80;101334.00;;;;5022109;28;20197;-76
2022/11/25 11:53:16;;;;;;;5.90;1.80;;;;;16.80;101331.00;;;;5023002;28;20693;-76
2022/11/25 11:55:59;;;;;;;7.13;1.70;;;;;16.80;101339.00;;;;5022114;28;20216;-76
2022/11/25 11:58:43;;;;;;;4.15;1.55;;;;;16.90;101341.00;;;;5029534;28;20200;-76
2022/11/25 12:01:24;;;;;;;3.53;1.30;;;;;17.00;101336.00;;;;5029823;28;20196;-76
2022/11/25 12:03:59;;;;;;;5.55;1.30;;;;;17.10;101337.00;;;;5020358;28;20315;-76
2022/11/25 12:06:29;;;;;;;5.43;1.27;;;;;17.10;101341.00;;;;5011121;28;20220;-76
2022/11/25 12:09:00;;;;;;;6.85;1.63;;;;;17.20;101333.00;;;;5011494;28;20193;-76
2022/11/25 12:11:35;;;;;;;6.75;1.50;;;;;17.30;101342.00;;;;5011772;28;20199;-77
2022/11/25 12:14:09;;;;;;;3.10;1.30;;;;;17.40;101358.00;;;;5017793;28;20562;-76
2022/11/25 12:16:42;;;;;;;6.07;1.75;;;;;17.40;101356.00;;;;5030165;28;20254;-75
2022/11/25 12:19:17;;;;;;;4.25;1.27;;;;;17.50;101371.00;;;;5030522;28;20280;-76
2022/11/25 12:21:49;;;;;;;4.70;1.27;;;;;17.50;101355.00;;;;5030556;28;20195;-76
2022/11/25 12:24:25;;;;;;;2.92;1.23;;;;;17.50;101367.00;;;;5021787;28;20207;-76
2022/11/25 12:27:01;;;;;;;6.40;1.08;;;;;17.50;101363.00;;;;5014681;28;20235;-76
2022/11/25 12:29:35;;;;;;;4.88;1.13;;;;;17.60;101371.00;;;;5010958;28;20192;-76
2022/11/25 12:32:14;;;;;;;3.40;1.20;;;;;17.60;101377.00;;;;5014628;28;20193;-76
2022/11/25 12:34:50;;;;;;;6.35;1.10;;;;;17.80;101381.00;;;;5018221;28;20933;-76
2022/11/25 12:37:30;;;;;;;3.50;1.10;;;;;17.80;101386.00;;;;5030533;28;20196;-76